Time,TemperatureF,DewpointF,PressureIn,WindDirection,WindDirectionDegrees,WindSpeedMPH,WindSpeedGustMPH,Humidity,HourlyPrecipIn,Conditions,Clouds,dailyrainin,SoftwareType,DateUTC
2013-02-23 00:04:00,40.8,38.0,30.23,East,101,0.0,0.0,90,0.00,,,0.00,weatherlink.com 1.10,2013-02-23 08:04:00,
2013-02-23 00:15:00,40.9,38.0,30.24,ESE,102,0.0,0.0,90,0.00,,,0.00,weatherlink.com 1.10,2013-02-23 08:15:00,
2013-02-23 00:30:00,40.7,38.0,30.24,East,101,0.0,0.0,90,0.00,,,0.00,weatherlink.com 1.10,2013-02-23 08:30:00,
2013-02-23 00:45:00,40.4,38.0,30.23,East,101,0.0,1.0,90,0.00,,,0.00,weatherlink.com 1.10,2013-02-23 08:45:00,
2013-02-23 01:00:00,40.2,38.0,30.23,East,101,0.0,0.0,91,0.00,,,0.00,weatherlink.com 1.10,2013-02-23 09:00:00,
2013-02-23 01:15:00,39.8,37.0,30.23,East,101,0.0,0.0,91,0.00,,,0.00,weatherlink.com 1.10,2013-02-23 09:15:00,
2013-02-23 01:30:00,39.5,37.0,30.22,East,101,0.0,0.0,92,0.00,,,0.00,weatherlink.com 1.10,2013-02-23 09:30:00,
2013-02-23 01:45:00,39.3,37.0,30.23,East,101,0.0,0.0,92,0.00,,,0.00,weatherlink.com 1.10,2013-02-23 09:45:00,
2013-02-23 02:00:00,39.1,37.0,30.22,East,101,1.0,1.0,93,0.00,,,0.00,weatherlink.com 1.10,2013-02-23 10:00:00,
2013-02-23 02:15:00,39.2,37.0,30.22,East,101,0.0,0.0,93,0.00,,,0.00,weatherlink.com 1.10,2013-02-23 10:15:00,
2013-02-23 02:30:00,39.3,38.0,30.21,East,101,0.0,0.0,93,0.00,,,0.00,weatherlink.com 1.10,2013-02-23 10:30:00,
2013-02-23 02:45:00,39.6,38.0,30.22,East,101,0.0,0.0,93,0.00,,,0.00,weatherlink.com 1.10,2013-02-23 10:45:00,
2013-02-23 03:00:00,39.9,38.0,30.21,East,101,0.0,0.0,93,0.00,,,0.00,weatherlink.com 1.10,2013-02-23 11:00:00,
2013-02-23 03:15:00,40.0,38.0,30.21,East,101,0.0,0.0,92,0.00,,,0.00,weatherlink.com 1.10,2013-02-23 11:15:00,
2013-02-23 03:30:00,40.3,38.0,30.21,East,101,0.0,0.0,92,0.00,,,0.00,weatherlink.com 1.10,2013-02-23 11:30:00,
2013-02-23 03:45:00,40.4,38.0,30.20,ESE,103,0.0,1.0,92,0.00,,,0.00,weatherlink.com 1.10,2013-02-23 11:45:00,
2013-02-23 04:00:00,40.4,38.0,30.19,ESE,102,0.0,0.0,92,0.00,,,0.00,weatherlink.com 1.10,2013-02-23 12:00:00,
2013-02-23 04:16:00,40.5,39.0,30.20,ESE,102,0.0,0.0,93,0.00,,,0.00,weatherlink.com 1.10,2013-02-23 12:16:00,
2013-02-23 04:30:00,40.6,39.0,30.19,East,101,0.0,0.0,93,0.00,,,0.00,weatherlink.com 1.10,2013-02-23 12:30:00,
2013-02-23 04:45:00,40.7,39.0,30.18,East,101,0.0,0.0,93,0.00,,,0.00,weatherlink.com 1.10,2013-02-23 12:45:00,
2013-02-23 05:00:00,40.7,39.0,30.19,East,101,0.0,0.0,93,0.00,,,0.00,weatherlink.com 1.10,2013-02-23 13:00:00,
2013-02-23 05:15:00,40.7,39.0,30.19,East,101,0.0,0.0,93,0.00,,,0.00,weatherlink.com 1.10,2013-02-23 13:15:00,
2013-02-23 05:30:00,40.8,39.0,30.19,ESE,102,0.0,0.0,93,0.00,,,0.00,weatherlink.com 1.10,2013-02-23 13:30:00,
2013-02-23 05:45:00,41.0,39.0,30.20,East,101,0.0,0.0,94,0.00,,,0.00,weatherlink.com 1.10,2013-02-23 13:45:00,
2013-02-23 06:00:00,41.1,40.0,30.20,East,101,0.0,0.0,94,0.00,,,0.00,weatherlink.com 1.10,2013-02-23 14:00:00,
2013-02-23 06:15:00,41.2,40.0,30.20,East,91,0.0,1.0,94,0.00,,,0.00,weatherlink.com 1.10,2013-02-23 14:15:00,
2013-02-23 06:30:00,41.5,40.0,30.20,WSW,253,1.0,2.0,95,0.00,,,0.00,weatherlink.com 1.10,2013-02-23 14:30:00,
2013-02-23 06:45:00,42.0,41.0,30.20,West,270,0.0,1.0,95,0.00,,,0.00,weatherlink.com 1.10,2013-02-23 14:45:00,
2013-02-23 07:00:00,41.6,40.0,30.20,SW,231,0.0,1.0,95,0.00,,,0.00,weatherlink.com 1.10,2013-02-23 15:00:00,
2013-02-23 07:15:00,41.3,40.0,30.20,SW,233,0.0,2.0,95,0.00,,,0.00,weatherlink.com 1.10,2013-02-23 15:15:00,
2013-02-23 07:31:00,41.8,40.0,30.20,West,274,3.0,7.0,94,0.00,,,0.00,weatherlink.com 1.10,2013-02-23 15:31:00,
2013-02-23 07:46:00,42.3,40.0,30.21,South,191,0.0,1.0,92,0.00,,,0.00,weatherlink.com 1.10,2013-02-23 15:46:00,
2013-02-23 08:01:00,42.4,40.0,30.22,SSW,208,1.0,1.0,91,0.00,,,0.00,weatherlink.com 1.10,2013-02-23 16:01:00,
2013-02-23 08:16:00,42.8,40.0,30.22,WSW,256,1.0,1.0,90,0.00,,,0.00,weatherlink.com 1.10,2013-02-23 16:16:00,
2013-02-23 08:31:00,43.1,40.0,30.22,SSW,208,0.0,1.0,89,0.00,,,0.00,weatherlink.com 1.10,2013-02-23 16:31:00,
2013-02-23 08:46:00,43.1,40.0,30.22,NNE,15,1.0,1.0,90,0.00,,,0.00,weatherlink.com 1.10,2013-02-23 16:46:00,
2013-02-23 09:01:00,43.7,41.0,30.23,SSW,207,0.0,4.0,89,0.00,,,0.00,weatherlink.com 1.10,2013-02-23 17:01:00,
2013-02-23 09:16:00,45.8,40.0,30.23,WSW,248,3.0,7.0,80,0.00,,,0.00,weatherlink.com 1.10,2013-02-23 17:16:00,
2013-02-23 09:31:00,46.8,40.0,30.22,ENE,71,3.0,6.0,77,0.00,,,0.00,weatherlink.com 1.10,2013-02-23 17:31:00,
2013-02-23 09:46:00,46.7,40.0,30.22,SE,142,0.0,3.0,78,0.00,,,0.00,weatherlink.com 1.10,2013-02-23 17:46:00,
2013-02-23 10:01:00,47.0,40.0,30.22,WSW,250,1.0,3.0,78,0.00,,,0.00,weatherlink.com 1.10,2013-02-23 18:01:00,
2013-02-23 10:16:00,47.5,40.0,30.22,South,173,0.0,8.0,74,0.00,,,0.00,weatherlink.com 1.10,2013-02-23 18:16:00,
2013-02-23 10:31:00,47.9,39.0,30.22,West,273,3.0,9.0,71,0.00,,,0.00,weatherlink.com 1.10,2013-02-23 18:31:00,
2013-02-23 10:46:00,48.9,39.0,30.21,WSW,243,1.0,7.0,70,0.00,,,0.00,weatherlink.com 1.10,2013-02-23 18:46:00,
2013-02-23 11:01:00,50.2,39.0,30.21,West,260,2.0,8.0,65,0.00,,,0.00,weatherlink.com 1.10,2013-02-23 19:01:00,
2013-02-23 11:16:00,51.2,40.0,30.22,NNE,22,0.0,2.0,66,0.00,,,0.00,weatherlink.com 1.10,2013-02-23 19:16:00,
2013-02-23 11:31:00,50.8,39.0,30.21,WSW,250,1.0,3.0,64,0.00,,,0.00,weatherlink.com 1.10,2013-02-23 19:31:00,
2013-02-23 11:46:00,51.7,39.0,30.20,ENE,75,2.0,5.0,63,0.00,,,0.00,weatherlink.com 1.10,2013-02-23 19:46:00,
2013-02-23 12:01:00,52.4,38.0,30.19,SSW,205,1.0,6.0,58,0.00,,,0.00,weatherlink.com 1.10,2013-02-23 20:01:00,
2013-02-23 12:16:00,52.5,36.0,30.18,WNW,284,0.0,6.0,54,0.00,,,0.00,weatherlink.com 1.10,2013-02-23 20:16:00,
2013-02-23 12:31:00,52.1,36.0,30.18,SE,141,1.0,10.0,55,0.00,,,0.00,weatherlink.com 1.10,2013-02-23 20:31:00,
2013-02-23 12:46:00,52.0,36.0,30.16,ESE,114,3.0,5.0,55,0.00,,,0.00,weatherlink.com 1.10,2013-02-23 20:46:00,
2013-02-23 13:01:00,52.0,37.0,30.16,ESE,114,4.0,4.0,56,0.00,,,0.00,weatherlink.com 1.10,2013-02-23 21:01:00,
2013-02-23 13:16:00,52.5,36.0,30.16,SW,225,0.0,3.0,54,0.00,,,0.00,weatherlink.com 1.10,2013-02-23 21:16:00,
2013-02-23 13:31:00,52.9,36.0,30.14,WSW,250,2.0,7.0,53,0.00,,,0.00,weatherlink.com 1.10,2013-02-23 21:31:00,
2013-02-23 13:46:00,53.5,34.0,30.14,SW,236,3.0,11.0,48,0.00,,,0.00,weatherlink.com 1.10,2013-02-23 21:46:00,
2013-02-23 14:01:00,53.2,34.0,30.14,WSW,243,1.0,12.0,49,0.00,,,0.00,weatherlink.com 1.10,2013-02-23 22:01:00,
2013-02-23 14:16:00,53.4,32.0,30.14,West,271,3.0,11.0,45,0.00,,,0.00,weatherlink.com 1.10,2013-02-23 22:16:00,
2013-02-23 14:31:00,53.0,34.0,30.14,West,276,3.0,8.0,48,0.00,,,0.00,weatherlink.com 1.10,2013-02-23 22:31:00,
2013-02-23 14:46:00,53.2,32.0,30.14,SE,129,3.0,8.0,45,0.00,,,0.00,weatherlink.com 1.10,2013-02-23 22:46:00,
2013-02-23 15:01:00,53.2,34.0,30.14,SSE,150,3.0,5.0,48,0.00,,,0.00,weatherlink.com 1.10,2013-02-23 23:01:00,
2013-02-23 15:16:00,53.0,35.0,30.13,SW,217,1.0,3.0,50,0.00,,,0.00,weatherlink.com 1.10,2013-02-23 23:16:00,
2013-02-23 15:31:00,52.8,33.0,30.13,East,91,1.0,8.0,47,0.00,,,0.00,weatherlink.com 1.10,2013-02-23 23:31:00,
2013-02-23 15:46:00,52.6,34.0,30.13,SW,224,2.0,3.0,50,0.00,,,0.00,weatherlink.com 1.10,2013-02-23 23:46:00,
2013-02-23 16:01:00,51.9,36.0,30.13,SSE,150,1.0,6.0,56,0.00,,,0.00,weatherlink.com 1.10,2013-02-24 00:01:00,
2013-02-23 16:17:00,51.2,37.0,30.13,South,169,1.0,2.0,58,0.00,,,0.00,weatherlink.com 1.10,2013-02-24 00:17:00,
2013-02-23 16:32:00,50.8,37.0,30.13,SW,235,1.0,4.0,60,0.00,,,0.00,weatherlink.com 1.10,2013-02-24 00:32:00,
2013-02-23 16:47:00,50.3,38.0,30.13,West,276,3.0,3.0,63,0.00,,,0.00,weatherlink.com 1.10,2013-02-24 00:47:00,
2013-02-23 17:02:00,49.9,38.0,30.13,West,278,2.0,5.0,63,0.00,,,0.00,weatherlink.com 1.10,2013-02-24 01:02:00,
2013-02-23 17:17:00,49.5,38.0,30.13,West,259,0.0,2.0,66,0.00,,,0.00,weatherlink.com 1.10,2013-02-24 01:17:00,
2013-02-23 17:32:00,48.8,39.0,30.13,SSE,167,1.0,3.0,68,0.00,,,0.00,weatherlink.com 1.10,2013-02-24 01:32:00,
2013-02-23 17:47:00,48.2,39.0,30.14,SE,124,0.0,1.0,70,0.00,,,0.00,weatherlink.com 1.10,2013-02-24 01:47:00,
2013-02-23 18:02:00,47.4,39.0,30.14,SSE,149,0.0,2.0,72,0.00,,,0.00,weatherlink.com 1.10,2013-02-24 02:02:00,
2013-02-23 18:17:00,46.6,39.0,30.15,SE,124,0.0,1.0,74,0.00,,,0.00,weatherlink.com 1.10,2013-02-24 02:17:00,
2013-02-23 18:32:00,45.8,39.0,30.15,SE,124,0.0,0.0,76,0.00,,,0.00,weatherlink.com 1.10,2013-02-24 02:32:00,
2013-02-23 18:47:00,44.9,38.0,30.15,SE,141,0.0,1.0,78,0.00,,,0.00,weatherlink.com 1.10,2013-02-24 02:47:00,
2013-02-23 19:02:00,44.2,38.0,30.16,SE,124,0.0,1.0,80,0.00,,,0.00,weatherlink.com 1.10,2013-02-24 03:02:00,
2013-02-23 19:17:00,43.4,38.0,30.17,SE,138,0.0,1.0,81,0.00,,,0.00,weatherlink.com 1.10,2013-02-24 03:17:00,
2013-02-23 19:32:00,42.5,38.0,30.17,SE,138,0.0,1.0,83,0.00,,,0.00,weatherlink.com 1.10,2013-02-24 03:32:00,
2013-02-23 19:47:00,41.9,37.0,30.17,SE,138,0.0,0.0,84,0.00,,,0.00,weatherlink.com 1.10,2013-02-24 03:47:00,
2013-02-23 20:02:00,41.0,37.0,30.18,SE,137,0.0,1.0,85,0.00,,,0.00,weatherlink.com 1.10,2013-02-24 04:02:00,
2013-02-23 20:17:00,40.4,37.0,30.18,SE,135,0.0,1.0,86,0.00,,,0.00,weatherlink.com 1.10,2013-02-24 04:17:00,
2013-02-23 20:32:00,39.8,36.0,30.18,SE,135,0.0,0.0,87,0.00,,,0.00,weatherlink.com 1.10,2013-02-24 04:32:00,
2013-02-23 20:47:00,39.2,36.0,30.18,SE,135,0.0,1.0,88,0.00,,,0.00,weatherlink.com 1.10,2013-02-24 04:47:00,
2013-02-23 21:02:00,38.7,36.0,30.18,ESE,108,0.0,1.0,89,0.00,,,0.00,weatherlink.com 1.10,2013-02-24 05:02:00,
2013-02-23 21:17:00,38.4,36.0,30.19,ESE,108,0.0,1.0,89,0.00,,,0.00,weatherlink.com 1.10,2013-02-24 05:17:00,
2013-02-23 21:32:00,38.1,36.0,30.18,ESE,107,0.0,1.0,90,0.00,,,0.00,weatherlink.com 1.10,2013-02-24 05:32:00,
2013-02-23 21:47:00,37.5,35.0,30.19,East,101,0.0,1.0,90,0.00,,,0.00,weatherlink.com 1.10,2013-02-24 05:47:00,
2013-02-23 22:02:00,37.2,35.0,30.19,East,98,0.0,1.0,91,0.00,,,0.00,weatherlink.com 1.10,2013-02-24 06:02:00,
2013-02-23 22:17:00,36.8,35.0,30.19,East,98,0.0,1.0,91,0.00,,,0.00,weatherlink.com 1.10,2013-02-24 06:17:00,
2013-02-23 22:32:00,36.5,34.0,30.19,East,99,1.0,1.0,91,0.00,,,0.00,weatherlink.com 1.10,2013-02-24 06:32:00,
2013-02-23 22:47:00,36.0,34.0,30.19,South,169,0.0,1.0,91,0.00,,,0.00,weatherlink.com 1.10,2013-02-24 06:47:00,
2013-02-23 23:02:00,35.7,34.0,30.19,SE,141,0.0,0.0,92,0.00,,,0.00,weatherlink.com 1.10,2013-02-24 07:02:00,
2013-02-23 23:17:00,35.5,34.0,30.18,SE,124,0.0,1.0,93,0.00,,,0.00,weatherlink.com 1.10,2013-02-24 07:17:00,
2013-02-23 23:32:00,35.2,33.0,30.18,ESE,121,0.0,1.0,92,0.00,,,0.00,weatherlink.com 1.10,2013-02-24 07:32:00,
2013-02-23 23:47:00,34.9,33.0,30.19,ESE,122,0.0,1.0,92,0.00,,,0.00,weatherlink.com 1.10,2013-02-24 07:47:00,